sensor_id;sensor_type;location;lat;lon;timestamp;P1;durP1;ratioP1;P2;durP2;ratioP2
37787;SDS011;23627;53.302;-6.362;2024-01-07T00:01:13;6.30;;;3.55;;
37787;SDS011;23627;53.302;-6.362;2024-01-07T00:03:42;7.30;;;3.75;;
37787;SDS011;23627;53.302;-6.362;2024-01-07T00:06:09;6.32;;;3.17;;
37787;SDS011;23627;53.302;-6.362;2024-01-07T00:08:35;7.47;;;3.28;;
37787;SDS011;23627;53.302;-6.362;2024-01-07T00:11:01;6.10;;;3.10;;
37787;SDS011;23627;53.302;-6.362;2024-01-07T00:13:27;7.50;;;4.00;;
37787;SDS011;23627;53.302;-6.362;2024-01-07T00:15:52;6.95;;;3.47;;
37787;SDS011;23627;53.302;-6.362;2024-01-07T00:18:20;6.70;;;3.10;;
37787;SDS011;23627;53.302;-6.362;2024-01-07T00:20:47;6.90;;;3.53;;
37787;SDS011;23627;53.302;-6.362;2024-01-07T00:23:13;8.20;;;4.00;;
37787;SDS011;23627;53.302;-6.362;2024-01-07T00:25:38;7.53;;;3.88;;
37787;SDS011;23627;53.302;-6.362;2024-01-07T00:28:04;6.43;;;3.70;;
37787;SDS011;23627;53.302;-6.362;2024-01-07T00:30:30;7.88;;;4.00;;
37787;SDS011;23627;53.302;-6.362;2024-01-07T00:32:56;7.60;;;3.72;;
37787;SDS011;23627;53.302;-6.362;2024-01-07T00:35:21;9.25;;;4.03;;
37787;SDS011;23627;53.302;-6.362;2024-01-07T00:37:47;6.05;;;3.83;;
37787;SDS011;23627;53.302;-6.362;2024-01-07T00:40:13;8.15;;;4.13;;
37787;SDS011;23627;53.302;-6.362;2024-01-07T00:42:39;8.48;;;4.15;;
37787;SDS011;23627;53.302;-6.362;2024-01-07T00:45:04;8.32;;;3.70;;
37787;SDS011;23627;53.302;-6.362;2024-01-07T00:47:30;8.30;;;4.00;;
37787;SDS011;23627;53.302;-6.362;2024-01-07T00:49:56;6.55;;;4.40;;
37787;SDS011;23627;53.302;-6.362;2024-01-07T00:52:22;7.75;;;4.03;;
37787;SDS011;23627;53.302;-6.362;2024-01-07T00:54:48;8.70;;;3.85;;
37787;SDS011;23627;53.302;-6.362;2024-01-07T00:57:14;7.40;;;4.20;;
37787;SDS011;23627;53.302;-6.362;2024-01-07T00:59:39;7.35;;;4.38;;
37787;SDS011;23627;53.302;-6.362;2024-01-07T01:02:05;8.35;;;3.88;;
37787;SDS011;23627;53.302;-6.362;2024-01-07T01:04:31;7.80;;;4.22;;
37787;SDS011;23627;53.302;-6.362;2024-01-07T01:06:57;8.07;;;4.20;;
37787;SDS011;23627;53.302;-6.362;2024-01-07T01:09:22;7.57;;;4.22;;
37787;SDS011;23627;53.302;-6.362;2024-01-07T01:11:48;7.85;;;4.45;;
37787;SDS011;23627;53.302;-6.362;2024-01-07T01:14:15;9.65;;;4.70;;
37787;SDS011;23627;53.302;-6.362;2024-01-07T01:16:41;6.95;;;3.97;;
37787;SDS011;23627;53.302;-6.362;2024-01-07T01:19:06;8.15;;;4.80;;
37787;SDS011;23627;53.302;-6.362;2024-01-07T01:21:33;7.43;;;4.20;;
37787;SDS011;23627;53.302;-6.362;2024-01-07T01:23:59;13.35;;;5.10;;
37787;SDS011;23627;53.302;-6.362;2024-01-07T01:26:25;10.20;;;4.78;;
37787;SDS011;23627;53.302;-6.362;2024-01-07T01:28:50;8.77;;;4.10;;
37787;SDS011;23627;53.302;-6.362;2024-01-07T01:31:16;8.88;;;4.45;;
37787;SDS011;23627;53.302;-6.362;2024-01-07T01:33:42;9.18;;;4.43;;
37787;SDS011;23627;53.302;-6.362;2024-01-07T01:36:08;8.82;;;4.25;;
37787;SDS011;23627;53.302;-6.362;2024-01-07T01:38:34;7.18;;;4.40;;
37787;SDS011;23627;53.302;-6.362;2024-01-07T01:40:59;7.03;;;4.00;;
37787;SDS011;23627;53.302;-6.362;2024-01-07T01:43:25;6.85;;;4.25;;
37787;SDS011;23627;53.302;-6.362;2024-01-07T01:45:55;9.32;;;4.18;;
37787;SDS011;23627;53.302;-6.362;2024-01-07T01:48:25;7.93;;;4.07;;
37787;SDS011;23627;53.302;-6.362;2024-01-07T01:50:52;7.55;;;3.72;;
37787;SDS011;23627;53.302;-6.362;2024-01-07T01:53:19;8.13;;;3.70;;
37787;SDS011;23627;53.302;-6.362;2024-01-07T01:55:45;6.95;;;4.18;;
37787;SDS011;23627;53.302;-6.362;2024-01-07T01:58:11;6.13;;;3.90;;
37787;SDS011;23627;53.302;-6.362;2024-01-07T02:00:38;7.45;;;3.45;;
37787;SDS011;23627;53.302;-6.362;2024-01-07T02:03:05;6.63;;;3.70;;
37787;SDS011;23627;53.302;-6.362;2024-01-07T02:05:31;6.72;;;3.10;;
37787;SDS011;23627;53.302;-6.362;2024-01-07T02:07:57;5.85;;;3.17;;
37787;SDS011;23627;53.302;-6.362;2024-01-07T02:10:23;7.30;;;3.60;;
37787;SDS011;23627;53.302;-6.362;2024-01-07T02:12:49;5.35;;;3.38;;
37787;SDS011;23627;53.302;-6.362;2024-01-07T02:15:15;6.45;;;3.30;;
37787;SDS011;23627;53.302;-6.362;2024-01-07T02:17:41;8.32;;;3.50;;
37787;SDS011;23627;53.302;-6.362;2024-01-07T02:20:07;7.22;;;3.33;;
37787;SDS011;23627;53.302;-6.362;2024-01-07T02:22:33;8.38;;;3.38;;
37787;SDS011;23627;53.302;-6.362;2024-01-07T02:24:58;6.82;;;3.38;;
37787;SDS011;23627;53.302;-6.362;2024-01-07T02:27:24;5.80;;;3.50;;
37787;SDS011;23627;53.302;-6.362;2024-01-07T02:29:50;8.82;;;3.45;;
37787;SDS011;23627;53.302;-6.362;2024-01-07T02:32:16;7.45;;;3.88;;
37787;SDS011;23627;53.302;-6.362;2024-01-07T02:34:41;7.13;;;3.28;;
37787;SDS011;23627;53.302;-6.362;2024-01-07T02:37:07;6.13;;;3.38;;
37787;SDS011;23627;53.302;-6.362;2024-01-07T02:39:33;7.68;;;3.70;;
37787;SDS011;23627;53.302;-6.362;2024-01-07T02:41:58;5.60;;;3.08;;
37787;SDS011;23627;53.302;-6.362;2024-01-07T02:44:24;5.50;;;3.40;;
37787;SDS011;23627;53.302;-6.362;2024-01-07T02:46:50;5.78;;;3.17;;
37787;SDS011;23627;53.302;-6.362;2024-01-07T02:49:15;7.28;;;3.40;;
37787;SDS011;23627;53.302;-6.362;2024-01-07T02:51:41;7.80;;;3.80;;
37787;SDS011;23627;53.302;-6.362;2024-01-07T02:54:07;5.57;;;3.10;;
37787;SDS011;23627;53.302;-6.362;2024-01-07T02:56:33;7.88;;;3.85;;
37787;SDS011;23627;53.302;-6.362;2024-01-07T02:58:59;5.15;;;3.30;;
37787;SDS011;23627;53.302;-6.362;2024-01-07T03:01:25;9.32;;;4.43;;
37787;SDS011;23627;53.302;-6.362;2024-01-07T03:03:51;6.40;;;3.50;;
37787;SDS011;23627;53.302;-6.362;2024-01-07T03:06:16;8.20;;;3.65;;
37787;SDS011;23627;53.302;-6.362;2024-01-07T03:08:42;4.90;;;3.38;;
37787;SDS011;23627;53.302;-6.362;2024-01-07T03:11:08;6.88;;;3.42;;
37787;SDS011;23627;53.302;-6.362;2024-01-07T03:13:34;6.97;;;3.75;;
37787;SDS011;23627;53.302;-6.362;2024-01-07T03:16:00;7.35;;;3.53;;
37787;SDS011;23627;53.302;-6.362;2024-01-07T03:18:26;6.90;;;3.30;;
37787;SDS011;23627;53.302;-6.362;2024-01-07T03:20:54;7.07;;;3.97;;
37787;SDS011;23627;53.302;-6.362;2024-01-07T03:23:20;6.65;;;3.65;;
37787;SDS011;23627;53.302;-6.362;2024-01-07T03:25:46;7.75;;;3.33;;
37787;SDS011;23627;53.302;-6.362;2024-01-07T03:28:11;6.80;;;3.60;;
37787;SDS011;23627;53.302;-6.362;2024-01-07T03:30:37;6.32;;;3.88;;
37787;SDS011;23627;53.302;-6.362;2024-01-07T03:33:03;6.25;;;3.83;;
37787;SDS011;23627;53.302;-6.362;2024-01-07T03:35:29;8.07;;;3.80;;
37787;SDS011;23627;53.302;-6.362;2024-01-07T03:37:54;5.95;;;3.20;;
37787;SDS011;23627;53.302;-6.362;2024-01-07T03:40:20;6.25;;;3.25;;
37787;SDS011;23627;53.302;-6.362;2024-01-07T03:42:46;5.80;;;3.50;;
37787;SDS011;23627;53.302;-6.362;2024-01-07T03:45:12;5.70;;;3.63;;
37787;SDS011;23627;53.302;-6.362;2024-01-07T03:47:37;5.75;;;3.65;;
37787;SDS011;23627;53.302;-6.362;2024-01-07T03:50:03;7.80;;;3.97;;
37787;SDS011;23627;53.302;-6.362;2024-01-07T03:52:29;7.53;;;3.95;;
37787;SDS011;23627;53.302;-6.362;2024-01-07T03:54:55;8.48;;;3.95;;
37787;SDS011;23627;53.302;-6.362;2024-01-07T03:57:21;9.18;;;4.30;;
37787;SDS011;23627;53.302;-6.362;2024-01-07T03:59:46;7.55;;;3.83;;
37787;SDS011;23627;53.302;-6.362;2024-01-07T04:02:12;8.02;;;3.95;;
37787;SDS011;23627;53.302;-6.362;2024-01-07T04:04:41;7.55;;;3.63;;
37787;SDS011;23627;53.302;-6.362;2024-01-07T04:07:07;6.30;;;3.78;;
37787;SDS011;23627;53.302;-6.362;2024-01-07T04:09:33;5.78;;;3.85;;
37787;SDS011;23627;53.302;-6.362;2024-01-07T04:11:58;6.95;;;3.67;;
37787;SDS011;23627;53.302;-6.362;2024-01-07T04:14:24;8.15;;;3.75;;
37787;SDS011;23627;53.302;-6.362;2024-01-07T04:16:52;6.78;;;3.78;;
37787;SDS011;23627;53.302;-6.362;2024-01-07T04:19:18;7.20;;;4.00;;
37787;SDS011;23627;53.302;-6.362;2024-01-07T04:21:47;6.80;;;3.33;;
37787;SDS011;23627;53.302;-6.362;2024-01-07T04:24:13;6.65;;;3.42;;
37787;SDS011;23627;53.302;-6.362;2024-01-07T04:26:39;7.28;;;3.55;;
37787;SDS011;23627;53.302;-6.362;2024-01-07T04:29:04;6.13;;;3.22;;
37787;SDS011;23627;53.302;-6.362;2024-01-07T04:31:31;5.47;;;2.95;;
37787;SDS011;23627;53.302;-6.362;2024-01-07T04:33:57;5.95;;;3.50;;
37787;SDS011;23627;53.302;-6.362;2024-01-07T04:36:22;7.35;;;3.60;;
37787;SDS011;23627;53.302;-6.362;2024-01-07T04:38:48;6.45;;;3.42;;
37787;SDS011;23627;53.302;-6.362;2024-01-07T04:41:14;7.40;;;3.45;;
37787;SDS011;23627;53.302;-6.362;2024-01-07T04:43:40;8.07;;;3.42;;
37787;SDS011;23627;53.302;-6.362;2024-01-07T04:46:08;8.05;;;3.10;;
37787;SDS011;23627;53.302;-6.362;2024-01-07T04:48:35;6.00;;;3.10;;
37787;SDS011;23627;53.302;-6.362;2024-01-07T04:51:01;5.95;;;3.08;;
37787;SDS011;23627;53.302;-6.362;2024-01-07T04:53:27;5.05;;;3.13;;
37787;SDS011;23627;53.302;-6.362;2024-01-07T04:55:52;6.80;;;3.15;;
37787;SDS011;23627;53.302;-6.362;2024-01-07T04:58:18;5.75;;;2.90;;
37787;SDS011;23627;53.302;-6.362;2024-01-07T05:00:44;5.63;;;3.60;;
37787;SDS011;23627;53.302;-6.362;2024-01-07T05:03:10;5.78;;;2.95;;
37787;SDS011;23627;53.302;-6.362;2024-01-07T05:05:35;5.25;;;3.10;;
37787;SDS011;23627;53.302;-6.362;2024-01-07T05:08:01;8.25;;;3.78;;
37787;SDS011;23627;53.302;-6.362;2024-01-07T05:10:27;7.18;;;3.38;;
37787;SDS011;23627;53.302;-6.362;2024-01-07T05:12:53;6.35;;;3.28;;
37787;SDS011;23627;53.302;-6.362;2024-01-07T05:15:19;6.13;;;3.13;;
37787;SDS011;23627;53.302;-6.362;2024-01-07T05:17:44;3.95;;;2.90;;
37787;SDS011;23627;53.302;-6.362;2024-01-07T05:20:10;7.15;;;3.47;;
37787;SDS011;23627;53.302;-6.362;2024-01-07T05:22:36;8.90;;;3.40;;
37787;SDS011;23627;53.302;-6.362;2024-01-07T05:25:02;6.40;;;3.70;;
37787;SDS011;23627;53.302;-6.362;2024-01-07T05:27:28;5.47;;;3.05;;
37787;SDS011;23627;53.302;-6.362;2024-01-07T05:29:53;5.45;;;3.33;;
37787;SDS011;23627;53.302;-6.362;2024-01-07T05:32:20;6.93;;;3.33;;
37787;SDS011;23627;53.302;-6.362;2024-01-07T05:34:46;4.95;;;3.25;;
37787;SDS011;23627;53.302;-6.362;2024-01-07T05:37:12;8.48;;;3.58;;
37787;SDS011;23627;53.302;-6.362;2024-01-07T05:39:37;5.78;;;3.70;;
37787;SDS011;23627;53.302;-6.362;2024-01-07T05:42:03;5.85;;;3.55;;
37787;SDS011;23627;53.302;-6.362;2024-01-07T05:44:29;5.47;;;3.30;;
37787;SDS011;23627;53.302;-6.362;2024-01-07T05:46:55;7.03;;;3.67;;
37787;SDS011;23627;53.302;-6.362;2024-01-07T05:49:20;6.97;;;3.55;;
37787;SDS011;23627;53.302;-6.362;2024-01-07T05:51:46;5.68;;;3.33;;
37787;SDS011;23627;53.302;-6.362;2024-01-07T05:54:12;6.05;;;3.10;;
37787;SDS011;23627;53.302;-6.362;2024-01-07T05:56:38;6.70;;;3.55;;
37787;SDS011;23627;53.302;-6.362;2024-01-07T05:59:05;5.70;;;3.67;;
37787;SDS011;23627;53.302;-6.362;2024-01-07T06:01:31;5.93;;;3.22;;
37787;SDS011;23627;53.302;-6.362;2024-01-07T06:03:57;7.75;;;3.55;;
37787;SDS011;23627;53.302;-6.362;2024-01-07T06:06:23;5.38;;;2.90;;
37787;SDS011;23627;53.302;-6.362;2024-01-07T06:08:48;7.05;;;3.47;;
37787;SDS011;23627;53.302;-6.362;2024-01-07T06:11:14;5.28;;;3.10;;
37787;SDS011;23627;53.302;-6.362;2024-01-07T06:13:45;5.28;;;3.30;;
37787;SDS011;23627;53.302;-6.362;2024-01-07T06:16:11;6.35;;;3.08;;
37787;SDS011;23627;53.302;-6.362;2024-01-07T06:18:37;6.63;;;3.20;;
37787;SDS011;23627;53.302;-6.362;2024-01-07T06:21:02;5.20;;;2.90;;
37787;SDS011;23627;53.302;-6.362;2024-01-07T06:23:28;5.38;;;3.10;;
37787;SDS011;23627;53.302;-6.362;2024-01-07T06:25:54;5.88;;;3.70;;
37787;SDS011;23627;53.302;-6.362;2024-01-07T06:28:20;6.72;;;3.20;;
37787;SDS011;23627;53.302;-6.362;2024-01-07T06:30:46;5.47;;;3.17;;
37787;SDS011;23627;53.302;-6.362;2024-01-07T06:33:11;6.30;;;3.15;;
37787;SDS011;23627;53.302;-6.362;2024-01-07T06:35:38;5.30;;;3.00;;
37787;SDS011;23627;53.302;-6.362;2024-01-07T06:38:03;5.88;;;3.50;;
37787;SDS011;23627;53.302;-6.362;2024-01-07T06:40:29;5.28;;;3.13;;
37787;SDS011;23627;53.302;-6.362;2024-01-07T06:42:55;4.63;;;2.90;;
37787;SDS011;23627;53.302;-6.362;2024-01-07T06:45:21;6.40;;;3.13;;
37787;SDS011;23627;53.302;-6.362;2024-01-07T06:47:47;6.35;;;3.10;;
37787;SDS011;23627;53.302;-6.362;2024-01-07T06:50:13;4.97;;;3.20;;
37787;SDS011;23627;53.302;-6.362;2024-01-07T06:52:38;7.03;;;3.30;;
37787;SDS011;23627;53.302;-6.362;2024-01-07T06:55:05;4.53;;;2.97;;
37787;SDS011;23627;53.302;-6.362;2024-01-07T06:57:31;5.85;;;3.40;;
37787;SDS011;23627;53.302;-6.362;2024-01-07T06:59:57;5.05;;;2.90;;
37787;SDS011;23627;53.302;-6.362;2024-01-07T07:02:23;4.75;;;2.85;;
37787;SDS011;23627;53.302;-6.362;2024-01-07T07:04:49;5.25;;;3.00;;
37787;SDS011;23627;53.302;-6.362;2024-01-07T07:07:16;4.85;;;3.15;;
37787;SDS011;23627;53.302;-6.362;2024-01-07T07:09:42;4.95;;;3.25;;
37787;SDS011;23627;53.302;-6.362;2024-01-07T07:12:08;5.25;;;3.17;;
37787;SDS011;23627;53.302;-6.362;2024-01-07T07:14:33;5.00;;;3.50;;
37787;SDS011;23627;53.302;-6.362;2024-01-07T07:16:59;5.70;;;3.38;;
37787;SDS011;23627;53.302;-6.362;2024-01-07T07:19:25;4.35;;;2.80;;
37787;SDS011;23627;53.302;-6.362;2024-01-07T07:21:51;5.55;;;3.22;;
37787;SDS011;23627;53.302;-6.362;2024-01-07T07:24:17;5.47;;;3.38;;
37787;SDS011;23627;53.302;-6.362;2024-01-07T07:26:42;5.60;;;3.28;;
37787;SDS011;23627;53.302;-6.362;2024-01-07T07:29:08;5.63;;;3.10;;
37787;SDS011;23627;53.302;-6.362;2024-01-07T07:31:37;5.53;;;3.40;;
37787;SDS011;23627;53.302;-6.362;2024-01-07T07:34:03;6.05;;;3.47;;
37787;SDS011;23627;53.302;-6.362;2024-01-07T07:36:29;6.90;;;3.58;;
37787;SDS011;23627;53.302;-6.362;2024-01-07T07:38:55;6.07;;;3.60;;
37787;SDS011;23627;53.302;-6.362;2024-01-07T07:41:20;7.35;;;3.80;;
37787;SDS011;23627;53.302;-6.362;2024-01-07T07:43:46;5.82;;;3.70;;
37787;SDS011;23627;53.302;-6.362;2024-01-07T07:46:12;5.95;;;4.07;;
37787;SDS011;23627;53.302;-6.362;2024-01-07T07:48:38;6.43;;;3.58;;
37787;SDS011;23627;53.302;-6.362;2024-01-07T07:51:04;6.18;;;3.83;;
37787;SDS011;23627;53.302;-6.362;2024-01-07T07:53:30;6.68;;;3.63;;
37787;SDS011;23627;53.302;-6.362;2024-01-07T07:55:56;5.63;;;3.90;;
37787;SDS011;23627;53.302;-6.362;2024-01-07T07:58:22;7.82;;;4.00;;
37787;SDS011;23627;53.302;-6.362;2024-01-07T08:00:47;6.22;;;3.92;;
37787;SDS011;23627;53.302;-6.362;2024-01-07T08:03:13;6.32;;;4.28;;
37787;SDS011;23627;53.302;-6.362;2024-01-07T08:05:39;7.20;;;3.78;;
37787;SDS011;23627;53.302;-6.362;2024-01-07T08:08:06;6.63;;;3.78;;
37787;SDS011;23627;53.302;-6.362;2024-01-07T08:10:32;6.40;;;3.78;;
37787;SDS011;23627;53.302;-6.362;2024-01-07T08:13:00;5.53;;;3.65;;
37787;SDS011;23627;53.302;-6.362;2024-01-07T08:15:26;6.57;;;4.25;;
37787;SDS011;23627;53.302;-6.362;2024-01-07T08:17:51;8.35;;;5.20;;
37787;SDS011;23627;53.302;-6.362;2024-01-07T08:20:17;6.53;;;4.55;;
37787;SDS011;23627;53.302;-6.362;2024-01-07T08:22:44;7.55;;;4.68;;
37787;SDS011;23627;53.302;-6.362;2024-01-07T08:25:10;7.07;;;4.40;;
37787;SDS011;23627;53.302;-6.362;2024-01-07T08:27:36;7.53;;;4.50;;
37787;SDS011;23627;53.302;-6.362;2024-01-07T08:30:02;6.30;;;4.00;;
37787;SDS011;23627;53.302;-6.362;2024-01-07T08:32:28;6.38;;;4.57;;
37787;SDS011;23627;53.302;-6.362;2024-01-07T08:34:54;7.80;;;4.30;;
37787;SDS011;23627;53.302;-6.362;2024-01-07T08:37:20;6.70;;;4.43;;
37787;SDS011;23627;53.302;-6.362;2024-01-07T08:39:46;5.88;;;4.40;;
37787;SDS011;23627;53.302;-6.362;2024-01-07T08:42:11;6.65;;;4.25;;
37787;SDS011;23627;53.302;-6.362;2024-01-07T08:44:37;6.40;;;4.15;;
37787;SDS011;23627;53.302;-6.362;2024-01-07T08:47:04;5.85;;;4.18;;
37787;SDS011;23627;53.302;-6.362;2024-01-07T08:49:30;6.95;;;4.32;;
37787;SDS011;23627;53.302;-6.362;2024-01-07T08:51:58;7.20;;;4.45;;
37787;SDS011;23627;53.302;-6.362;2024-01-07T08:54:24;7.07;;;3.85;;
37787;SDS011;23627;53.302;-6.362;2024-01-07T08:56:50;6.15;;;4.15;;
37787;SDS011;23627;53.302;-6.362;2024-01-07T08:59:16;6.57;;;4.43;;
37787;SDS011;23627;53.302;-6.362;2024-01-07T09:01:41;6.13;;;4.43;;
37787;SDS011;23627;53.302;-6.362;2024-01-07T09:04:07;6.15;;;3.92;;
37787;SDS011;23627;53.302;-6.362;2024-01-07T09:06:33;6.25;;;4.35;;
37787;SDS011;23627;53.302;-6.362;2024-01-07T09:08:59;5.60;;;3.78;;
37787;SDS011;23627;53.302;-6.362;2024-01-07T09:11:24;7.85;;;4.05;;
37787;SDS011;23627;53.302;-6.362;2024-01-07T09:13:50;5.55;;;3.80;;
37787;SDS011;23627;53.302;-6.362;2024-01-07T09:16:16;6.47;;;3.92;;
37787;SDS011;23627;53.302;-6.362;2024-01-07T09:18:42;6.05;;;3.95;;
37787;SDS011;23627;53.302;-6.362;2024-01-07T09:21:10;6.40;;;3.90;;
37787;SDS011;23627;53.302;-6.362;2024-01-07T09:23:36;6.35;;;4.20;;
37787;SDS011;23627;53.302;-6.362;2024-01-07T09:26:02;7.28;;;4.18;;
37787;SDS011;23627;53.302;-6.362;2024-01-07T09:28:28;5.18;;;3.45;;
37787;SDS011;23627;53.302;-6.362;2024-01-07T09:30:54;6.10;;;3.70;;
37787;SDS011;23627;53.302;-6.362;2024-01-07T09:33:19;7.18;;;3.67;;
37787;SDS011;23627;53.302;-6.362;2024-01-07T09:35:48;5.43;;;3.50;;
37787;SDS011;23627;53.302;-6.362;2024-01-07T09:38:17;5.75;;;3.75;;
37787;SDS011;23627;53.302;-6.362;2024-01-07T09:40:42;5.38;;;3.55;;
37787;SDS011;23627;53.302;-6.362;2024-01-07T09:43:08;5.32;;;3.50;;
37787;SDS011;23627;53.302;-6.362;2024-01-07T09:45:38;7.00;;;3.78;;
37787;SDS011;23627;53.302;-6.362;2024-01-07T09:48:06;5.35;;;3.65;;
37787;SDS011;23627;53.302;-6.362;2024-01-07T09:50:32;5.55;;;3.85;;
37787;SDS011;23627;53.302;-6.362;2024-01-07T09:52:58;5.53;;;3.75;;
37787;SDS011;23627;53.302;-6.362;2024-01-07T09:55:29;5.47;;;3.85;;
37787;SDS011;23627;53.302;-6.362;2024-01-07T09:57:59;7.22;;;3.85;;
37787;SDS011;23627;53.302;-6.362;2024-01-07T10:00:28;6.82;;;4.05;;
37787;SDS011;23627;53.302;-6.362;2024-01-07T10:02:54;5.43;;;3.85;;
37787;SDS011;23627;53.302;-6.362;2024-01-07T10:05:20;7.03;;;4.18;;
37787;SDS011;23627;53.302;-6.362;2024-01-07T10:07:46;6.90;;;4.10;;
37787;SDS011;23627;53.302;-6.362;2024-01-07T10:10:15;6.13;;;4.15;;
37787;SDS011;23627;53.302;-6.362;2024-01-07T10:12:43;5.82;;;3.80;;
37787;SDS011;23627;53.302;-6.362;2024-01-07T10:15:11;6.70;;;4.35;;
37787;SDS011;23627;53.302;-6.362;2024-01-07T10:17:36;6.25;;;4.13;;
37787;SDS011;23627;53.302;-6.362;2024-01-07T10:20:04;5.05;;;3.55;;
37787;SDS011;23627;53.302;-6.362;2024-01-07T10:22:35;6.72;;;4.35;;
37787;SDS011;23627;53.302;-6.362;2024-01-07T10:25:02;6.45;;;4.28;;
37787;SDS011;23627;53.302;-6.362;2024-01-07T10:27:28;7.57;;;4.60;;
37787;SDS011;23627;53.302;-6.362;2024-01-07T10:29:54;5.72;;;3.83;;
37787;SDS011;23627;53.302;-6.362;2024-01-07T10:32:26;6.97;;;4.35;;
37787;SDS011;23627;53.302;-6.362;2024-01-07T10:34:52;6.75;;;4.53;;
37787;SDS011;23627;53.302;-6.362;2024-01-07T10:37:23;6.65;;;4.60;;
37787;SDS011;23627;53.302;-6.362;2024-01-07T10:39:49;6.97;;;4.15;;
37787;SDS011;23627;53.302;-6.362;2024-01-07T10:42:16;6.35;;;4.10;;
37787;SDS011;23627;53.302;-6.362;2024-01-07T10:44:43;7.07;;;4.05;;
37787;SDS011;23627;53.302;-6.362;2024-01-07T10:47:09;6.28;;;3.90;;
37787;SDS011;23627;53.302;-6.362;2024-01-07T10:49:37;6.57;;;4.20;;
37787;SDS011;23627;53.302;-6.362;2024-01-07T10:52:08;5.95;;;3.90;;
37787;SDS011;23627;53.302;-6.362;2024-01-07T10:54:36;5.82;;;4.18;;
37787;SDS011;23627;53.302;-6.362;2024-01-07T10:59:59;8.98;;;6.30;;
37787;SDS011;23627;53.302;-6.362;2024-01-07T11:02:25;7.75;;;4.53;;
37787;SDS011;23627;53.302;-6.362;2024-01-07T11:07:39;7.63;;;4.72;;
37787;SDS011;23627;53.302;-6.362;2024-01-07T11:12:53;8.18;;;5.20;;
37787;SDS011;23627;53.302;-6.362;2024-01-07T11:18:20;8.07;;;4.82;;
37787;SDS011;23627;53.302;-6.362;2024-01-07T11:20:48;8.65;;;5.50;;
37787;SDS011;23627;53.302;-6.362;2024-01-07T11:23:35;9.30;;;5.55;;
37787;SDS011;23627;53.302;-6.362;2024-01-07T11:26:05;8.90;;;5.00;;
37787;SDS011;23627;53.302;-6.362;2024-01-07T11:31:21;7.47;;;5.22;;
37787;SDS011;23627;53.302;-6.362;2024-01-07T11:34:07;7.65;;;4.88;;
37787;SDS011;23627;53.302;-6.362;2024-01-07T11:36:36;7.32;;;5.40;;
37787;SDS011;23627;53.302;-6.362;2024-01-07T11:39:03;7.13;;;5.05;;
37787;SDS011;23627;53.302;-6.362;2024-01-07T11:41:32;8.95;;;5.60;;
37787;SDS011;23627;53.302;-6.362;2024-01-07T11:43:59;8.85;;;5.40;;
37787;SDS011;23627;53.302;-6.362;2024-01-07T11:46:26;9.18;;;5.72;;
37787;SDS011;23627;53.302;-6.362;2024-01-07T11:48:53;9.30;;;6.63;;
37787;SDS011;23627;53.302;-6.362;2024-01-07T11:51:32;10.27;;;6.25;;
37787;SDS011;23627;53.302;-6.362;2024-01-07T11:54:00;9.68;;;6.07;;
37787;SDS011;23627;53.302;-6.362;2024-01-07T11:56:26;8.95;;;5.93;;
37787;SDS011;23627;53.302;-6.362;2024-01-07T11:58:53;9.57;;;5.97;;
37787;SDS011;23627;53.302;-6.362;2024-01-07T12:01:21;9.13;;;6.60;;
37787;SDS011;23627;53.302;-6.362;2024-01-07T12:03:47;10.32;;;6.55;;
37787;SDS011;23627;53.302;-6.362;2024-01-07T12:06:13;9.65;;;6.05;;
37787;SDS011;23627;53.302;-6.362;2024-01-07T12:08:42;8.52;;;6.18;;
37787;SDS011;23627;53.302;-6.362;2024-01-07T12:11:10;9.30;;;6.15;;
37787;SDS011;23627;53.302;-6.362;2024-01-07T12:13:37;9.95;;;6.05;;
37787;SDS011;23627;53.302;-6.362;2024-01-07T12:16:07;9.77;;;6.07;;
37787;SDS011;23627;53.302;-6.362;2024-01-07T12:18:37;8.50;;;5.85;;
37787;SDS011;23627;53.302;-6.362;2024-01-07T12:21:04;9.02;;;6.18;;
37787;SDS011;23627;53.302;-6.362;2024-01-07T12:23:33;8.68;;;5.95;;
37787;SDS011;23627;53.302;-6.362;2024-01-07T12:26:10;8.35;;;6.07;;
37787;SDS011;23627;53.302;-6.362;2024-01-07T12:28:37;8.85;;;6.25;;
37787;SDS011;23627;53.302;-6.362;2024-01-07T12:31:06;8.50;;;5.60;;
37787;SDS011;23627;53.302;-6.362;2024-01-07T12:33:33;8.55;;;5.35;;
37787;SDS011;23627;53.302;-6.362;2024-01-07T12:35:59;8.30;;;5.70;;
37787;SDS011;23627;53.302;-6.362;2024-01-07T12:38:26;7.88;;;5.57;;
37787;SDS011;23627;53.302;-6.362;2024-01-07T12:40:53;8.68;;;5.72;;
37787;SDS011;23627;53.302;-6.362;2024-01-07T12:43:19;8.07;;;5.90;;
37787;SDS011;23627;53.302;-6.362;2024-01-07T12:45:45;10.27;;;5.70;;
37787;SDS011;23627;53.302;-6.362;2024-01-07T12:48:13;8.18;;;5.85;;
37787;SDS011;23627;53.302;-6.362;2024-01-07T12:50:38;8.13;;;5.78;;
37787;SDS011;23627;53.302;-6.362;2024-01-07T12:53:04;9.73;;;6.22;;
37787;SDS011;23627;53.302;-6.362;2024-01-07T12:55:31;8.35;;;5.65;;
37787;SDS011;23627;53.302;-6.362;2024-01-07T12:57:57;8.13;;;5.43;;
37787;SDS011;23627;53.302;-6.362;2024-01-07T13:00:24;8.18;;;5.88;;
37787;SDS011;23627;53.302;-6.362;2024-01-07T13:02:51;7.93;;;5.40;;
37787;SDS011;23627;53.302;-6.362;2024-01-07T13:05:17;8.43;;;5.55;;
37787;SDS011;23627;53.302;-6.362;2024-01-07T13:07:44;8.35;;;5.80;;
37787;SDS011;23627;53.302;-6.362;2024-01-07T13:10:10;8.52;;;5.40;;
37787;SDS011;23627;53.302;-6.362;2024-01-07T13:12:35;9.43;;;5.78;;
37787;SDS011;23627;53.302;-6.362;2024-01-07T13:15:02;9.07;;;6.03;;
37787;SDS011;23627;53.302;-6.362;2024-01-07T13:17:28;7.35;;;5.30;;
37787;SDS011;23627;53.302;-6.362;2024-01-07T13:19:55;7.93;;;5.40;;
37787;SDS011;23627;53.302;-6.362;2024-01-07T13:22:21;8.80;;;5.68;;
37787;SDS011;23627;53.302;-6.362;2024-01-07T13:24:47;9.00;;;6.55;;
37787;SDS011;23627;53.302;-6.362;2024-01-07T13:27:13;8.70;;;5.97;;
37787;SDS011;23627;53.302;-6.362;2024-01-07T13:29:38;9.80;;;6.32;;
37787;SDS011;23627;53.302;-6.362;2024-01-07T13:32:05;10.60;;;7.03;;
37787;SDS011;23627;53.302;-6.362;2024-01-07T13:34:31;9.43;;;6.65;;
37787;SDS011;23627;53.302;-6.362;2024-01-07T13:36:59;9.52;;;6.45;;
37787;SDS011;23627;53.302;-6.362;2024-01-07T13:39:25;9.48;;;6.28;;
37787;SDS011;23627;53.302;-6.362;2024-01-07T13:41:51;9.55;;;6.45;;
37787;SDS011;23627;53.302;-6.362;2024-01-07T13:44:16;10.93;;;7.18;;
37787;SDS011;23627;53.302;-6.362;2024-01-07T13:46:43;11.15;;;7.10;;
37787;SDS011;23627;53.302;-6.362;2024-01-07T13:49:10;8.88;;;7.10;;
37787;SDS011;23627;53.302;-6.362;2024-01-07T13:51:37;12.48;;;8.23;;
37787;SDS011;23627;53.302;-6.362;2024-01-07T13:54:03;11.55;;;7.68;;
37787;SDS011;23627;53.302;-6.362;2024-01-07T13:56:29;9.70;;;7.05;;
37787;SDS011;23627;53.302;-6.362;2024-01-07T13:58:55;10.27;;;7.30;;
37787;SDS011;23627;53.302;-6.362;2024-01-07T14:01:21;10.80;;;7.32;;
37787;SDS011;23627;53.302;-6.362;2024-01-07T14:03:47;10.15;;;6.93;;
37787;SDS011;23627;53.302;-6.362;2024-01-07T14:06:12;11.75;;;7.68;;
37787;SDS011;23627;53.302;-6.362;2024-01-07T14:08:38;10.20;;;7.03;;
37787;SDS011;23627;53.302;-6.362;2024-01-07T14:11:04;11.55;;;7.20;;
37787;SDS011;23627;53.302;-6.362;2024-01-07T14:13:32;10.73;;;7.43;;
37787;SDS011;23627;53.302;-6.362;2024-01-07T14:15:58;12.00;;;7.82;;
37787;SDS011;23627;53.302;-6.362;2024-01-07T14:18:23;11.85;;;7.47;;
37787;SDS011;23627;53.302;-6.362;2024-01-07T14:20:49;10.85;;;6.78;;
37787;SDS011;23627;53.302;-6.362;2024-01-07T14:23:15;9.75;;;6.65;;
37787;SDS011;23627;53.302;-6.362;2024-01-07T14:25:41;10.50;;;6.75;;
37787;SDS011;23627;53.302;-6.362;2024-01-07T14:28:07;8.82;;;5.97;;
37787;SDS011;23627;53.302;-6.362;2024-01-07T14:30:33;8.82;;;5.97;;
37787;SDS011;23627;53.302;-6.362;2024-01-07T14:33:03;9.43;;;6.00;;
37787;SDS011;23627;53.302;-6.362;2024-01-07T14:35:29;11.23;;;6.13;;
37787;SDS011;23627;53.302;-6.362;2024-01-07T14:37:57;8.85;;;5.80;;
37787;SDS011;23627;53.302;-6.362;2024-01-07T14:40:25;8.40;;;5.03;;
37787;SDS011;23627;53.302;-6.362;2024-01-07T14:42:51;9.30;;;5.50;;